White Sands Missile Range, New Mexico
Current Conditions -  °F | °C
As of 7:15 PM on Saturday 22 Nov 2014 (Local Time) from KLRU Reporting Station
Clear Clear  
Wind Chill: 53°   Ceiling: Unl
Heat Index: 53°   Visibility: 10mi
Dew Point: 17°   Wind: 14mph
Humidity: 24%   Direction: 260°W
Pressure: 29.95"   Gusts: 17mph
Location:  32.38°N, 106.49°W
Report Text: KLRU 230215Z AUTO 26012G15KT 10SM CLR 12/M09 A2995 RMK AO2 T01181086
Loading
Personal Weather Stations






























Interactive Weather Map New forecast layout! Learn more

10-Day Weather Forecast

Advertisements
Track Severe Weather on mobile